Terminal Aerodrome Forecast
Issued by NWS Shreveport, LA

Home | Current Version | Previous Version | Text Only | Print | Product List | Glossary On
Versions: 1 2 3 4 5 6 7 8 9 10 11 12 13 14 15 16 17 18
767
FTUS44 KSHV 270008 RRA
TAFMLU
TAF
KMLU 270008Z 2700/2724 24004KT P6SM VCTS BKN045CB BKN120 BKN250
      TEMPO 2701/2703 VRB10G25KT 4SM -TSRA BKN040CB OVC090
     FM270400 18003KT P6SM BKN080 BKN150
     FM271000 00000KT 5SM BR SCT015 BKN100
      TEMPO 2711/2713 3SM BR BKN015 OVC080
     FM271500 05004KT P6SM BKN040
     FM272000 07006KT P6SM BKN050=

USA.gov is the U.S. government's official web portal to all federal, state and local government web resources and services.